createdAt,value
2022-09-11T12:42:30.440Z,44.56
2022-09-11T12:45:39.498Z,43.50
2022-09-11T12:51:35.568Z,41.77
2022-09-11T12:54:36.281Z,41.51
2022-09-11T12:57:22.196Z,41.61
2022-09-11T13:49:04.261Z,43.56
2022-09-11T14:49:07.430Z,45.79
2022-09-11T15:58:45.833Z,47.35
2022-09-11T16:18:45.935Z,51.17
2022-09-11T16:42:53.104Z,54.77
2022-09-11T16:45:30.924Z,55.00
2022-09-11T16:48:00.866Z,55.38
2022-09-11T16:50:29.594Z,55.68
2022-09-11T16:53:02.868Z,55.74
2022-09-11T16:55:29.986Z,56.20
2022-09-11T16:58:01.061Z,56.42
2022-09-11T17:00:31.925Z,56.69
2022-09-11T17:03:01.015Z,56.65
2022-09-11T17:05:38.399Z,56.91
2022-09-11T17:08:06.969Z,57.80
2022-09-11T17:10:36.629Z,58.43
2022-09-11T17:13:04.520Z,58.34
2022-09-11T17:18:22.541Z,61.32
2022-09-11T17:20:54.946Z,59.45
2022-09-11T17:23:21.861Z,59.53
2022-09-11T17:25:54.193Z,60.00
2022-09-11T17:28:21.633Z,59.83
2022-09-11T17:31:03.746Z,59.78
2022-09-11T17:33:33.431Z,59.63
2022-09-11T17:36:08.527Z,60.03
2022-09-11T17:42:15.118Z,60.12
2022-09-11T17:52:30.193Z,61.12
2022-09-11T17:59:00.655Z,61.11
2022-09-11T18:01:32.104Z,61.76
2022-09-11T18:04:47.216Z,62.36
2022-09-11T18:09:09.104Z,62.35
2022-09-11T18:10:24.364Z,62.37
2022-09-11T18:13:03.455Z,62.42
2022-09-11T18:18:31.220Z,63.47
2022-09-11T18:21:14.308Z,63.91
2022-09-11T18:24:17.382Z,64.31
2022-09-11T18:31:13.713Z,64.89
2022-09-11T18:37:32.056Z,65.75
2022-09-11T18:51:03.364Z,66.93
2022-09-11T18:53:30.432Z,67.44
2022-09-11T18:57:15.913Z,67.58
2022-09-11T19:00:02.260Z,68.29
2022-09-11T19:02:31.449Z,68.41
2022-09-11T19:08:08.318Z,69.20
2022-09-11T19:10:57.248Z,69.16
2022-09-11T19:13:27.204Z,69.56
2022-09-11T19:16:03.418Z,69.64
2022-09-11T19:18:38.170Z,70.14
2022-09-11T19:21:09.441Z,70.65
2022-09-11T19:23:41.524Z,70.65
2022-09-11T19:26:11.107Z,70.54
2022-09-11T19:28:40.734Z,71.04
2022-09-11T19:31:10.044Z,71.37
2022-09-11T19:33:43.879Z,71.33
2022-09-11T19:36:17.597Z,71.27
2022-09-11T19:38:49.757Z,71.08
2022-09-11T19:41:23.976Z,71.45
2022-09-11T19:43:51.204Z,71.28
2022-09-11T19:46:25.582Z,71.27
2022-09-11T19:48:56.347Z,71.70
2022-09-11T19:51:28.915Z,71.68
2022-09-11T19:54:17.727Z,71.66
2022-09-11T19:56:50.932Z,71.94
2022-09-11T19:59:22.490Z,71.77
2022-09-11T20:01:58.271Z,71.97
2022-09-11T20:04:37.652Z,72.11
2022-09-11T20:07:04.612Z,72.47
2022-09-11T20:09:42.988Z,72.38
2022-09-11T20:12:24.840Z,72.49
2022-09-11T20:18:35.395Z,72.86
2022-09-11T20:24:18.657Z,72.77
2022-09-11T20:27:11.271Z,73.05
2022-09-11T20:30:00.498Z,73.43
2022-09-11T20:32:52.287Z,73.38
2022-09-11T20:35:23.220Z,73.59
2022-09-11T20:38:14.527Z,73.57
2022-09-11T20:40:53.313Z,73.82
2022-09-11T20:43:58.163Z,74.08
2022-09-11T20:46:29.138Z,74.29
2022-09-11T20:48:56.057Z,74.42
2022-09-11T20:51:23.350Z,75.00
2022-09-11T20:53:50.477Z,74.95
2022-09-11T20:56:22.375Z,74.83
2022-09-11T20:58:53.611Z,75.01
2022-09-11T21:01:25.477Z,75.20
2022-09-11T21:04:00.469Z,75.44
2022-09-11T21:06:31.730Z,75.29
2022-09-11T21:09:05.653Z,75.40
2022-09-11T21:11:37.712Z,75.81
2022-09-11T21:14:15.921Z,76.13
2022-09-11T21:16:48.628Z,76.20
2022-09-11T21:19:20.512Z,76.48
2022-09-11T21:21:49.880Z,76.77
2022-09-11T21:24:25.716Z,76.53
2022-09-11T21:26:58.197Z,77.16
2022-09-11T21:29:40.098Z,76.80
2022-09-11T21:32:10.242Z,77.23
2022-09-11T21:34:52.103Z,77.09
2022-09-11T21:37:27.732Z,77.36
2022-09-11T21:40:16.353Z,77.38
2022-09-11T21:42:49.950Z,77.49
2022-09-11T21:45:26.861Z,77.24
2022-09-11T21:48:02.876Z,77.54
2022-09-11T21:50:40.520Z,77.52
2022-09-11T21:53:08.638Z,77.72
2022-09-11T21:55:45.616Z,77.79
2022-09-11T21:58:24.432Z,77.90
2022-09-11T22:01:11.893Z,77.89
2022-09-11T22:03:41.919Z,78.01
2022-09-11T22:06:12.708Z,78.32
2022-09-11T22:08:55.101Z,78.54
2022-09-11T22:11:23.090Z,78.98
2022-09-11T22:13:56.874Z,79.00
2022-09-11T22:16:50.795Z,79.17
2022-09-11T22:19:20.682Z,79.50
2022-09-11T22:21:59.622Z,79.50
2022-09-11T22:24:26.366Z,79.72
2022-09-11T22:27:02.786Z,80.04
2022-09-11T22:29:32.914Z,80.17
2022-09-11T22:32:13.488Z,80.16
2022-09-11T22:34:45.152Z,80.17
2022-09-11T22:37:25.098Z,80.32
2022-09-11T22:39:55.587Z,80.61
2022-09-11T22:42:24.997Z,80.65
2022-09-11T22:44:52.352Z,80.83
2022-09-11T22:47:26.329Z,80.68
2022-09-11T22:49:57.973Z,80.95
2022-09-11T22:52:29.723Z,81.27
2022-09-11T22:54:57.096Z,81.20
2022-09-11T22:57:31.347Z,81.36
2022-09-11T23:00:09.065Z,81.35
2022-09-11T23:02:40.009Z,81.08
2022-09-11T23:05:09.625Z,81.60
2022-09-11T23:07:36.427Z,81.75
2022-09-11T23:10:06.066Z,81.83
2022-09-11T23:12:37.495Z,82.06
2022-09-11T23:15:11.617Z,82.62
2022-09-11T23:17:43.108Z,82.16
2022-09-11T23:20:12.193Z,83.39
2022-09-11T23:25:21.696Z,82.74
2022-09-11T23:27:53.713Z,82.66
2022-09-11T23:30:25.678Z,82.95
2022-09-11T23:32:54.555Z,83.09
2022-09-11T23:35:21.510Z,83.39
2022-09-11T23:37:48.890Z,83.48
2022-09-11T23:40:17.926Z,83.82
2022-09-11T23:42:47.860Z,83.91
2022-09-11T23:45:15.212Z,83.89
2022-09-11T23:47:51.079Z,84.04
2022-09-11T23:50:22.117Z,84.06
2022-09-11T23:52:52.364Z,84.10
2022-09-11T23:55:25.743Z,84.15
2022-09-11T23:57:59.205Z,84.03
